createdAt,value
2023-05-19T00:01:50.086Z,3.37
2023-05-19T00:04:17.451Z,3.47
2023-05-19T00:06:46.919Z,3.17
2023-05-19T00:09:13.961Z,2.83
2023-05-19T00:11:41.115Z,3.33
2023-05-19T00:14:09.723Z,3.50
2023-05-19T00:16:38.124Z,3.77
2023-05-19T00:19:05.649Z,3.67
2023-05-19T00:21:33.008Z,3.60
2023-05-19T00:23:59.831Z,3.90
2023-05-19T00:26:27.152Z,3.30
2023-05-19T00:29:04.397Z,3.77
2023-05-19T00:31:31.929Z,3.53
2023-05-19T00:33:58.764Z,3.37
2023-05-19T00:36:26.313Z,3.97
2023-05-19T00:38:53.221Z,3.07
2023-05-19T00:41:20.026Z,2.63
2023-05-19T00:43:47.208Z,2.90
2023-05-19T00:46:14.115Z,3.33
2023-05-19T00:48:41.184Z,3.50
2023-05-19T00:51:08.163Z,3.63
2023-05-19T00:53:35.656Z,3.63
2023-05-19T00:56:03.340Z,3.30
2023-05-19T00:58:31.001Z,3.20
2023-05-19T01:01:04.181Z,3.07
2023-05-19T01:03:32.297Z,2.93
2023-05-19T01:06:01.904Z,3.50
2023-05-19T01:08:29.992Z,3.67
2023-05-19T01:10:56.788Z,3.00
2023-05-19T01:13:23.945Z,2.97
2023-05-19T01:16:00.163Z,3.20
2023-05-19T01:18:39.311Z,3.50
2023-05-19T01:21:45.180Z,2.97
2023-05-19T01:24:30.676Z,2.90
2023-05-19T01:27:12.549Z,2.53
2023-05-19T01:29:40.821Z,2.20
2023-05-19T01:32:07.954Z,2.27
2023-05-19T01:34:37.997Z,2.60
2023-05-19T01:37:05.415Z,2.77
2023-05-19T01:39:33.078Z,2.60
2023-05-19T01:42:00.649Z,2.70
2023-05-19T01:44:28.886Z,2.63
2023-05-19T01:46:55.890Z,2.80
2023-05-19T01:49:23.754Z,2.53
2023-05-19T01:51:50.573Z,2.53
2023-05-19T01:54:17.476Z,2.20
2023-05-19T01:56:51.230Z,2.63
2023-05-19T01:59:30.453Z,2.60
2023-05-19T02:01:58.110Z,2.40
2023-05-19T02:04:40.459Z,2.23
2023-05-19T02:07:26.631Z,2.67
2023-05-19T02:09:57.317Z,2.60
2023-05-19T02:12:34.600Z,2.50
2023-05-19T02:15:11.390Z,2.40
2023-05-19T02:17:41.813Z,2.30
2023-05-19T02:20:10.275Z,2.80
2023-05-19T02:22:37.197Z,2.07
2023-05-19T02:25:04.144Z,1.93
2023-05-19T02:27:33.327Z,1.90
2023-05-19T02:30:00.215Z,2.27
2023-05-19T02:32:28.477Z,2.20
2023-05-19T02:34:56.718Z,2.00
2023-05-19T02:37:28.739Z,2.40
2023-05-19T02:39:56.219Z,2.17
2023-05-19T02:42:23.634Z,2.30
2023-05-19T02:44:50.595Z,2.53
2023-05-19T02:47:17.963Z,2.40
2023-05-19T02:49:45.236Z,1.93
2023-05-19T02:52:12.385Z,2.33
2023-05-19T02:54:40.137Z,2.17
2023-05-19T02:57:07.099Z,2.23
2023-05-19T02:59:34.087Z,2.50
2023-05-19T03:02:01.885Z,2.23
2023-05-19T03:04:29.923Z,2.33
2023-05-19T03:06:57.584Z,2.70
2023-05-19T03:09:24.508Z,2.60
2023-05-19T03:11:51.460Z,2.40
2023-05-19T03:14:18.910Z,2.03
2023-05-19T03:16:46.078Z,2.53
2023-05-19T03:19:13.132Z,2.20
2023-05-19T03:21:40.189Z,2.63
2023-05-19T03:24:07.338Z,2.23
2023-05-19T03:26:34.791Z,2.40
2023-05-19T03:29:01.733Z,2.17
2023-05-19T03:31:30.984Z,2.23
2023-05-19T03:33:59.230Z,2.70
2023-05-19T03:36:32.280Z,2.17
2023-05-19T03:39:00.582Z,2.30
2023-05-19T03:41:27.859Z,2.53
2023-05-19T03:43:55.812Z,2.60
2023-05-19T03:46:22.661Z,2.67
2023-05-19T03:49:21.673Z,2.70
2023-05-19T03:52:13.143Z,2.70
2023-05-19T03:55:07.368Z,2.50
2023-05-19T03:57:34.250Z,2.80
2023-05-19T04:00:01.083Z,2.40
2023-05-19T04:02:28.697Z,2.30
2023-05-19T04:04:56.244Z,2.47
2023-05-19T04:07:23.570Z,2.27
2023-05-19T04:09:51.122Z,2.63
2023-05-19T04:12:17.910Z,2.83
2023-05-19T04:14:45.459Z,2.80
2023-05-19T04:17:12.412Z,2.30
2023-05-19T04:19:39.482Z,2.33
2023-05-19T04:22:06.302Z,2.63
2023-05-19T04:24:34.022Z,2.20
2023-05-19T04:27:02.740Z,2.70
2023-05-19T04:29:30.180Z,2.67
2023-05-19T04:32:01.217Z,2.63
2023-05-19T04:34:28.841Z,2.30
2023-05-19T04:36:56.376Z,3.30
2023-05-19T04:39:23.354Z,2.53
2023-05-19T04:41:51.698Z,2.33
2023-05-19T04:44:19.376Z,3.20
2023-05-19T04:46:50.344Z,2.80
2023-05-19T04:49:19.355Z,3.33
2023-05-19T04:51:46.306Z,3.53
2023-05-19T04:54:13.434Z,2.73
2023-05-19T04:56:40.692Z,2.73
2023-05-19T04:59:07.767Z,2.90
2023-05-19T05:01:34.910Z,2.60
2023-05-19T05:04:02.936Z,4.13
2023-05-19T05:06:31.846Z,4.37
2023-05-19T05:09:00.266Z,3.70
2023-05-19T05:11:27.813Z,3.60
2023-05-19T05:13:58.408Z,3.00
2023-05-19T05:16:28.342Z,3.20
2023-05-19T05:18:57.908Z,3.87
2023-05-19T05:21:26.349Z,3.53
2023-05-19T05:23:53.633Z,3.27
2023-05-19T05:26:26.799Z,3.57
2023-05-19T05:28:55.848Z,3.17
2023-05-19T05:31:23.124Z,3.47
2023-05-19T05:33:50.114Z,3.37
2023-05-19T05:36:20.830Z,3.97
2023-05-19T05:38:48.002Z,3.47
2023-05-19T05:41:15.971Z,3.47
2023-05-19T05:43:42.987Z,3.53
2023-05-19T05:46:09.978Z,3.80
2023-05-19T05:48:37.212Z,3.83
2023-05-19T05:51:05.660Z,4.03
2023-05-19T05:53:34.888Z,4.10
2023-05-19T05:56:02.438Z,3.70
2023-05-19T05:58:40.813Z,3.80
2023-05-19T06:01:11.575Z,4.17
2023-05-19T06:03:42.662Z,3.73
2023-05-19T06:06:11.011Z,3.93
2023-05-19T06:08:38.130Z,4.20
2023-05-19T06:11:11.116Z,4.13
2023-05-19T06:13:41.659Z,4.10
2023-05-19T06:16:13.921Z,4.37
2023-05-19T06:18:46.885Z,4.73
2023-05-19T06:21:14.107Z,4.50
2023-05-19T06:23:42.035Z,4.40
2023-05-19T06:26:10.611Z,4.20
2023-05-19T06:28:37.844Z,4.17
2023-05-19T06:31:05.485Z,4.30
2023-05-19T06:33:49.620Z,4.30
2023-05-19T06:36:16.801Z,4.37
2023-05-19T06:38:45.041Z,4.87
2023-05-19T06:41:11.994Z,4.43
2023-05-19T06:43:39.000Z,4.63
2023-05-19T06:46:05.891Z,5.17
2023-05-19T06:48:33.759Z,5.27
2023-05-19T06:51:00.910Z,4.73
2023-05-19T06:53:28.040Z,4.77
2023-05-19T06:55:59.851Z,5.43
2023-05-19T06:58:31.910Z,5.67
2023-05-19T07:01:00.691Z,6.00
2023-05-19T07:03:33.768Z,6.23
2023-05-19T07:06:00.861Z,8.40
2023-05-19T07:08:28.560Z,6.30
2023-05-19T07:10:56.343Z,5.00
2023-05-19T07:13:24.412Z,4.70
2023-05-19T07:15:55.996Z,5.00
2023-05-19T07:18:23.436Z,5.23
2023-05-19T07:20:52.788Z,5.53
2023-05-19T07:23:21.253Z,5.97
2023-05-19T07:25:48.166Z,5.80
2023-05-19T07:28:15.108Z,5.90
2023-05-19T07:30:41.985Z,6.00
2023-05-19T07:33:09.012Z,5.93
2023-05-19T07:35:36.006Z,5.83
2023-05-19T07:38:03.175Z,6.10
2023-05-19T07:40:30.082Z,5.70
2023-05-19T07:42:57.052Z,6.67
2023-05-19T07:45:23.857Z,6.13
2023-05-19T07:47:50.830Z,6.40
2023-05-19T07:50:17.803Z,7.37
2023-05-19T07:52:44.650Z,7.23
2023-05-19T07:55:11.962Z,7.40
2023-05-19T07:57:38.765Z,7.17
2023-05-19T08:00:10.234Z,6.47
2023-05-19T08:02:38.719Z,6.20
2023-05-19T08:05:05.767Z,6.40
2023-05-19T08:07:32.695Z,7.47
2023-05-19T08:09:59.647Z,7.40
2023-05-19T08:12:26.423Z,7.27
2023-05-19T08:14:53.487Z,6.37
2023-05-19T08:17:20.944Z,7.13
2023-05-19T08:19:47.818Z,6.63
2023-05-19T08:22:14.607Z,6.40
2023-05-19T08:24:43.421Z,7.70
2023-05-19T08:27:10.284Z,7.23
2023-05-19T08:29:38.384Z,7.50
2023-05-19T08:32:05.562Z,7.27
2023-05-19T08:34:32.438Z,7.10
2023-05-19T08:36:59.971Z,9.60
2023-05-19T08:39:27.555Z,9.07
2023-05-19T08:41:54.765Z,7.23
2023-05-19T08:44:21.934Z,8.20
2023-05-19T08:46:49.811Z,6.43
2023-05-19T08:49:18.096Z,7.73
2023-05-19T08:52:03.775Z,7.43
2023-05-19T08:54:33.906Z,6.67
2023-05-19T08:57:01.360Z,8.80
2023-05-19T08:59:28.986Z,7.70
2023-05-19T09:01:56.143Z,7.43
2023-05-19T09:04:25.986Z,6.80
2023-05-19T09:06:53.384Z,7.20
2023-05-19T09:09:20.559Z,7.07
2023-05-19T09:11:47.475Z,6.33
2023-05-19T09:14:14.381Z,6.63
2023-05-19T09:16:41.676Z,6.80
2023-05-19T09:19:13.727Z,5.50
2023-05-19T09:21:40.576Z,5.73
2023-05-19T09:24:08.611Z,6.23
2023-05-19T09:26:38.732Z,8.40
2023-05-19T09:29:16.207Z,7.30
2023-05-19T09:31:50.724Z,5.60
2023-05-19T09:34:17.979Z,6.17
2023-05-19T09:36:46.744Z,6.50
2023-05-19T09:39:18.019Z,8.27
2023-05-19T09:41:45.361Z,6.57
2023-05-19T09:44:21.468Z,6.77
2023-05-19T09:46:49.673Z,6.03
2023-05-19T09:49:27.462Z,5.73
2023-05-19T09:51:58.099Z,4.83
2023-05-19T09:54:25.659Z,6.63
2023-05-19T09:57:02.661Z,7.07
2023-05-19T09:59:32.966Z,7.40
2023-05-19T10:02:01.662Z,6.53
2023-05-19T10:04:29.863Z,7.20
2023-05-19T10:07:01.745Z,12.17
2023-05-19T10:09:29.439Z,8.50
2023-05-19T10:11:56.824Z,7.47
2023-05-19T10:14:27.104Z,7.47
2023-05-19T10:16:55.141Z,6.57
2023-05-19T10:19:23.228Z,7.77
2023-05-19T10:21:50.872Z,7.53
2023-05-19T10:24:18.088Z,7.77
2023-05-19T10:26:46.937Z,7.37
2023-05-19T10:29:16.335Z,7.30
2023-05-19T10:31:43.940Z,7.60
2023-05-19T10:34:22.345Z,7.60
2023-05-19T10:36:52.101Z,7.50
2023-05-19T10:39:39.259Z,7.23
2023-05-19T10:42:24.700Z,9.90
2023-05-19T10:44:51.656Z,7.13
2023-05-19T10:47:25.288Z,7.03
2023-05-19T10:49:53.505Z,7.83
2023-05-19T10:52:26.196Z,8.60
2023-05-19T10:54:55.114Z,7.57
2023-05-19T10:57:33.166Z,7.70
2023-05-19T11:00:07.322Z,8.90
2023-05-19T11:02:37.167Z,8.10
2023-05-19T11:05:09.445Z,6.67
2023-05-19T11:07:36.673Z,8.40
2023-05-19T11:10:07.817Z,8.60
2023-05-19T11:12:42.473Z,8.77
2023-05-19T11:15:15.613Z,6.83
2023-05-19T11:17:45.464Z,6.80
2023-05-19T11:20:34.962Z,7.63
2023-05-19T11:23:07.104Z,7.67
2023-05-19T11:25:44.863Z,7.37
2023-05-19T11:28:14.782Z,7.60
2023-05-19T11:30:42.985Z,7.63
2023-05-19T11:33:10.375Z,8.33
2023-05-19T11:35:37.789Z,7.73
2023-05-19T11:38:05.533Z,7.63
2023-05-19T11:40:32.637Z,7.60
2023-05-19T11:42:59.883Z,7.17
2023-05-19T11:45:27.072Z,8.43
2023-05-19T11:48:02.631Z,5.70
2023-05-19T11:50:31.816Z,5.70
2023-05-19T11:53:00.145Z,5.67
2023-05-19T11:55:27.382Z,5.80
2023-05-19T12:00:30.697Z,6.30
2023-05-19T12:02:58.195Z,5.53
2023-05-19T12:05:26.129Z,6.40
2023-05-19T12:07:53.326Z,6.10
2023-05-19T12:10:30.651Z,6.70
2023-05-19T12:12:58.671Z,6.67
2023-05-19T12:15:25.825Z,6.43
2023-05-19T12:17:59.923Z,6.30
2023-05-19T12:20:27.430Z,5.67
2023-05-19T12:22:55.853Z,6.77
2023-05-19T12:25:23.057Z,8.00
2023-05-19T12:27:49.976Z,8.00
2023-05-19T12:30:17.136Z,7.60
2023-05-19T12:32:46.877Z,6.83
2023-05-19T12:35:15.647Z,6.30
2023-05-19T12:37:42.824Z,6.97
2023-05-19T12:40:10.037Z,7.73
2023-05-19T12:42:38.034Z,8.00
2023-05-19T12:45:05.201Z,7.53
2023-05-19T12:47:33.614Z,8.13
2023-05-19T12:50:00.757Z,7.03
2023-05-19T12:52:28.299Z,7.63
2023-05-19T12:55:02.376Z,7.67
2023-05-19T12:57:32.616Z,6.90
2023-05-19T13:00:21.133Z,7.30
2023-05-19T13:03:01.751Z,7.03
2023-05-19T13:05:29.937Z,6.37
2023-05-19T13:08:17.069Z,7.73
2023-05-19T13:10:44.761Z,7.57
2023-05-19T13:13:12.150Z,7.60
2023-05-19T13:15:41.058Z,7.43
2023-05-19T13:18:09.125Z,7.40
2023-05-19T13:20:37.054Z,6.77
2023-05-19T13:23:04.966Z,7.17
2023-05-19T13:25:33.026Z,7.23
2023-05-19T13:28:01.549Z,7.10
2023-05-19T13:30:28.489Z,7.43
2023-05-19T13:32:56.106Z,7.23
2023-05-19T13:35:23.124Z,7.20
2023-05-19T13:37:50.218Z,7.90
2023-05-19T13:40:17.722Z,7.83
2023-05-19T13:42:45.429Z,6.77
2023-05-19T13:45:12.256Z,8.00
2023-05-19T13:47:39.482Z,7.33
2023-05-19T13:50:06.643Z,7.20
2023-05-19T13:52:33.840Z,7.50
2023-05-19T13:55:00.886Z,7.20
2023-05-19T13:57:27.986Z,8.03
2023-05-19T14:00:02.504Z,8.73
2023-05-19T14:02:39.102Z,8.03
2023-05-19T14:05:06.513Z,9.03
2023-05-19T14:07:35.181Z,8.33
2023-05-19T14:10:03.019Z,9.13
2023-05-19T14:12:41.408Z,8.77
2023-05-19T14:15:14.703Z,8.23
2023-05-19T14:17:41.679Z,8.80
2023-05-19T14:20:09.830Z,7.87
2023-05-19T14:22:36.690Z,7.57
2023-05-19T14:25:03.916Z,8.37
2023-05-19T14:27:30.785Z,8.33
2023-05-19T14:29:57.750Z,8.47
2023-05-19T14:32:24.720Z,9.17
2023-05-19T14:34:54.640Z,8.83
2023-05-19T14:37:21.556Z,9.57
2023-05-19T14:39:48.384Z,8.87
2023-05-19T14:42:15.213Z,8.20
2023-05-19T14:44:42.650Z,8.30
2023-05-19T14:47:11.527Z,8.60
2023-05-19T14:49:38.947Z,8.53
2023-05-19T14:52:06.304Z,9.40
2023-05-19T14:54:34.021Z,9.07
2023-05-19T14:57:01.821Z,9.10
2023-05-19T14:59:29.794Z,9.13
2023-05-19T15:01:56.651Z,9.23
2023-05-19T15:04:23.778Z,8.77
2023-05-19T15:07:05.864Z,8.80
2023-05-19T15:09:36.472Z,9.57
2023-05-19T15:12:03.388Z,9.90
2023-05-19T15:14:31.065Z,10.07
2023-05-19T15:16:58.695Z,9.57
2023-05-19T15:19:26.253Z,10.53
2023-05-19T15:21:53.320Z,13.03
2023-05-19T15:24:20.205Z,11.70
2023-05-19T15:26:47.424Z,12.97
2023-05-19T15:29:14.831Z,13.10
2023-05-19T15:31:41.760Z,14.00
2023-05-19T15:34:09.081Z,13.60
2023-05-19T15:36:35.965Z,12.33
2023-05-19T15:39:03.963Z,10.10
2023-05-19T15:41:31.134Z,11.67
2023-05-19T15:44:00.535Z,9.93
2023-05-19T15:46:27.599Z,9.00
2023-05-19T15:48:54.607Z,9.73
2023-05-19T15:51:22.101Z,9.30
2023-05-19T15:53:49.058Z,8.90
2023-05-19T15:56:16.160Z,9.10
2023-05-19T15:58:42.988Z,8.50
2023-05-19T16:01:09.964Z,9.30
2023-05-19T16:03:36.923Z,9.37
2023-05-19T16:06:04.026Z,9.07
2023-05-19T16:08:31.033Z,10.17
2023-05-19T16:10:57.922Z,10.03
2023-05-19T16:13:24.836Z,9.40
2023-05-19T16:15:51.786Z,9.97
2023-05-19T16:18:18.732Z,9.50
2023-05-19T16:20:45.689Z,9.90
2023-05-19T16:23:12.630Z,10.10
2023-05-19T16:25:39.416Z,9.90
2023-05-19T16:28:06.346Z,10.70
2023-05-19T16:30:33.533Z,10.07
2023-05-19T16:33:00.471Z,10.53
2023-05-19T16:35:30.193Z,10.70
2023-05-19T16:37:57.107Z,11.47
2023-05-19T16:40:24.138Z,10.97
2023-05-19T16:42:53.041Z,10.37
2023-05-19T16:45:19.953Z,11.93
2023-05-19T16:47:46.944Z,10.93
2023-05-19T16:50:13.966Z,11.63
2023-05-19T16:52:40.775Z,11.23
2023-05-19T16:55:07.987Z,12.47
2023-05-19T16:57:34.893Z,11.33
2023-05-19T17:00:01.714Z,12.03
2023-05-19T17:02:28.761Z,12.73
2023-05-19T17:04:55.827Z,12.47
2023-05-19T17:07:22.681Z,14.23
2023-05-19T17:09:49.488Z,13.63
2023-05-19T17:12:16.461Z,12.63
2023-05-19T17:14:43.784Z,12.67
2023-05-19T17:17:10.907Z,11.60
2023-05-19T17:19:37.863Z,12.70
2023-05-19T17:22:04.914Z,13.93
2023-05-19T17:24:33.417Z,13.53
2023-05-19T17:27:00.905Z,12.43
2023-05-19T17:29:31.176Z,12.87
2023-05-19T17:31:58.048Z,13.07
2023-05-19T17:34:24.966Z,13.17
2023-05-19T17:36:51.935Z,12.83
2023-05-19T17:39:20.346Z,13.27
2023-05-19T17:41:47.274Z,13.40
2023-05-19T17:44:14.139Z,13.33
2023-05-19T17:46:41.334Z,13.13
2023-05-19T17:49:08.352Z,13.77
2023-05-19T17:51:35.392Z,14.07
2023-05-19T17:54:02.381Z,15.60
2023-05-19T17:56:30.450Z,15.00
2023-05-19T17:58:57.458Z,14.40
2023-05-19T18:01:25.958Z,13.80
2023-05-19T18:03:53.070Z,13.63
2023-05-19T18:06:20.683Z,17.10
2023-05-19T18:08:50.646Z,18.67
2023-05-19T18:11:18.253Z,19.00
2023-05-19T18:13:45.179Z,17.73
2023-05-19T18:16:12.519Z,15.70
2023-05-19T18:18:41.868Z,15.37
2023-05-19T18:21:14.399Z,13.97
2023-05-19T18:23:41.650Z,16.23
2023-05-19T18:26:08.486Z,18.57
2023-05-19T18:28:35.689Z,20.87
2023-05-19T18:31:03.799Z,19.13
2023-05-19T18:33:31.314Z,18.03
2023-05-19T18:35:58.741Z,18.50
2023-05-19T18:38:25.725Z,16.80
2023-05-19T18:40:52.669Z,15.60
2023-05-19T18:43:19.629Z,15.10
2023-05-19T18:45:49.659Z,16.23
2023-05-19T18:48:17.375Z,16.93
2023-05-19T18:50:44.831Z,17.23
2023-05-19T18:53:12.025Z,18.80
2023-05-19T18:55:38.915Z,16.50
2023-05-19T18:58:06.281Z,18.00
2023-05-19T19:00:35.135Z,16.57
2023-05-19T19:03:02.557Z,14.60
2023-05-19T19:05:29.364Z,14.73
2023-05-19T19:07:56.466Z,14.63
2023-05-19T19:10:23.331Z,19.17
2023-05-19T19:12:50.228Z,21.43
2023-05-19T19:15:17.067Z,20.13
2023-05-19T19:17:45.429Z,23.10
2023-05-19T19:20:12.500Z,20.43
2023-05-19T19:22:39.412Z,16.17
2023-05-19T19:25:06.504Z,18.03
2023-05-19T19:27:35.779Z,23.93
2023-05-19T19:30:02.709Z,17.23
2023-05-19T19:32:31.591Z,15.50
2023-05-19T19:34:58.663Z,17.60
2023-05-19T19:37:25.559Z,15.37
2023-05-19T19:39:52.472Z,14.63
2023-05-19T19:42:19.368Z,17.37
2023-05-19T19:44:46.215Z,19.10
2023-05-19T19:47:13.043Z,16.73
2023-05-19T19:49:40.055Z,16.43
2023-05-19T19:52:06.848Z,16.10
2023-05-19T19:54:33.874Z,16.70
2023-05-19T19:57:00.905Z,15.53
2023-05-19T19:59:27.865Z,15.10
2023-05-19T20:01:55.266Z,19.03
2023-05-19T20:04:22.227Z,17.00
2023-05-19T20:06:49.852Z,17.77
2023-05-19T20:09:16.815Z,15.60
2023-05-19T20:11:43.801Z,18.60
2023-05-19T20:14:11.027Z,16.33
2023-05-19T20:16:37.929Z,15.03
2023-05-19T20:19:05.964Z,15.67
2023-05-19T20:21:33.770Z,14.77
2023-05-19T20:24:00.803Z,15.37
2023-05-19T20:26:29.273Z,13.90
2023-05-19T20:28:56.392Z,14.43
2023-05-19T20:31:24.852Z,14.73
2023-05-19T20:33:52.007Z,15.20
2023-05-19T20:36:18.985Z,14.87
2023-05-19T20:38:48.038Z,14.87
2023-05-19T20:41:15.086Z,14.57
2023-05-19T20:43:41.995Z,14.90
2023-05-19T20:46:09.138Z,13.00
2023-05-19T20:48:36.409Z,14.80
2023-05-19T20:51:03.228Z,14.27
2023-05-19T20:53:30.150Z,14.40
2023-05-19T20:55:57.112Z,14.13
2023-05-19T20:58:26.913Z,14.90
2023-05-19T21:00:58.055Z,14.33
2023-05-19T21:03:25.448Z,13.70
2023-05-19T21:05:53.067Z,14.93
2023-05-19T21:08:19.977Z,15.63
2023-05-19T21:10:46.960Z,14.13
2023-05-19T21:13:13.778Z,13.80
2023-05-19T21:15:40.650Z,13.90
2023-05-19T21:18:07.645Z,14.87
2023-05-19T21:20:34.867Z,14.10
2023-05-19T21:23:01.984Z,13.77
2023-05-19T21:25:28.817Z,14.90
2023-05-19T21:27:56.245Z,15.50
2023-05-19T21:30:23.784Z,15.27
2023-05-19T21:32:50.930Z,15.87
2023-05-19T21:35:17.753Z,16.27
2023-05-19T21:37:44.695Z,14.57
2023-05-19T21:40:11.896Z,15.17
2023-05-19T21:42:38.844Z,16.57
2023-05-19T21:45:06.652Z,17.27
2023-05-19T21:47:33.692Z,15.43
2023-05-19T21:50:00.716Z,17.63
2023-05-19T21:52:27.538Z,17.20
2023-05-19T21:54:54.391Z,18.33
2023-05-19T21:57:21.302Z,16.33
2023-05-19T21:59:48.116Z,14.83
2023-05-19T22:02:15.732Z,15.67
2023-05-19T22:04:43.151Z,15.40
2023-05-19T22:07:10.249Z,17.20
2023-05-19T22:09:38.112Z,16.57
2023-05-19T22:12:05.086Z,15.37
2023-05-19T22:14:31.964Z,16.47
2023-05-19T22:16:58.806Z,16.93
2023-05-19T22:19:26.285Z,16.10
2023-05-19T22:22:02.016Z,17.27
2023-05-19T22:24:37.062Z,15.87
2023-05-19T22:27:04.064Z,16.17
2023-05-19T22:29:31.053Z,15.57
2023-05-19T22:31:58.014Z,15.40
2023-05-19T22:34:24.851Z,14.90
2023-05-19T22:36:51.716Z,15.03
2023-05-19T22:39:18.907Z,16.33
2023-05-19T22:41:45.919Z,15.50
2023-05-19T22:44:16.311Z,19.17
2023-05-19T22:46:44.584Z,21.67
2023-05-19T22:49:11.372Z,19.03
2023-05-19T22:51:39.468Z,17.50
2023-05-19T22:54:07.105Z,16.00
2023-05-19T22:56:34.211Z,14.53
2023-05-19T22:59:01.060Z,15.47
2023-05-19T23:01:27.999Z,15.30
2023-05-19T23:03:54.928Z,15.77
2023-05-19T23:06:22.058Z,16.67
2023-05-19T23:08:57.740Z,17.17
2023-05-19T23:11:24.578Z,16.03
2023-05-19T23:13:51.456Z,16.83
2023-05-19T23:16:18.474Z,15.93
2023-05-19T23:18:45.270Z,17.10
2023-05-19T23:21:12.824Z,16.53
2023-05-19T23:23:39.670Z,16.87
2023-05-19T23:26:06.602Z,15.70
2023-05-19T23:28:33.560Z,15.63
2023-05-19T23:31:00.876Z,16.47
2023-05-19T23:33:27.753Z,16.33
2023-05-19T23:35:54.645Z,15.83
2023-05-19T23:38:21.741Z,16.10
2023-05-19T23:40:48.517Z,17.17
2023-05-19T23:43:15.342Z,15.47
2023-05-19T23:45:42.541Z,15.80
2023-05-19T23:48:09.409Z,15.13
2023-05-19T23:50:36.326Z,15.57
2023-05-19T23:53:03.432Z,13.87
2023-05-19T23:55:30.330Z,13.83
2023-05-19T23:57:57.149Z,14.20
